Flight Track Log - Related Links

Times and Time Zones

All times are in EDT time to prevent confusion due to time zone crossing. See the N93XP flight status page for this flight to view local times or setup timezone preferences in your user account.

Time Position Orientation Groundspeed Altitude Reporting Facility
EDT Latitude Longitude Course Direction KTS MPH feet Rate Location/Type
Wed 07:04:02 AM 41.6667 -87.4500 323° Northwest 216 249 2,600  Level Chicago TRACON
Wed 07:05:10 AM 41.7394 -87.4597 354° North 253 291 3,000 188 Climbing Chicago Center
Wed 07:06:10 AM 41.8108 -87.4744 351° North 260 299 3,000  Level Chicago Center
Wed 07:07:09 AM 41.8833 -87.4833 355° North 260 299 3,000  Level Chicago TRACON
Wed 07:08:03 AM 41.9500 -87.5000 349° North 258 297 3,000  Level Chicago TRACON
Wed 07:09:00 AM 41.9177 -87.7005 323° Northwest  Level FlightAware Approximate
Wed 07:09:09 AM 42.0167 -87.5333 340° North 257 296 3,000  Level Chicago TRACON
Wed 07:10:03 AM 42.0667 -87.5833 323° Northwest 243 280 3,000  Level Chicago TRACON
Wed 07:11:03 AM 42.1167 -87.6333 323° Northwest 227 261 3,000  Level Chicago TRACON
Wed 07:11:57 AM 42.1667 -87.6833 323° Northwest 220 253 3,000  Level Chicago TRACON
Wed 07:12:16 AM 42.1819 -87.6983 324° Northwest 225 259 3,000  Level Chicago Center
Wed 07:13:17 AM 42.2319 -87.7486 323° Northwest 225 259 3,000  Level Chicago Center
Wed 07:14:18 AM 42.2806 -87.7953 325° Northwest 219 252 3,000 -246 Level Chicago Center
Wed 07:15:19 AM 42.2864 -87.8686 276° West 214 246 2,500 -293 Descending Chicago Center
Wed 07:16:21 AM 42.2556 -87.9142 228° Southwest 197 227 2,400 -49 Descending Chicago Center
Wed 07:17:22 AM 42.2147 -87.9306 197° South 160 184 2,400 -246 Level Chicago Center
Wed 07:18:23 AM 42.1756 -87.9389 189° South 147 169 1,900 -689 Descending Chicago Center
Wed 07:19:24 AM 42.1392 -87.9158 155° Southeast 143 165 1,000 -537 Descending Chicago Center
Wed 07:20:26 AM 42.0967 -87.8883 154° Southeast 141 162 800 -195 Descending Chicago Center
Wed 07:21:27 AM 42.1167 -87.9014 334° Northwest 116 133 600 -197 Descending Chicago Center

Login

Don't have an account? Register now (free) for customized features, flight alerts, and more!